MV Sebastian D — WDH9021 — position and weather

sailwx.info

Track history (hours):
 
Tides and Currents Weather Stations Pressure Air Temp Water Temp Dewpoint Dewpoint Depression Visibility Wind Speed Wind Dir Waves Ship Positions

MV Sebastian D

Owner: Enterprise Marine Services, LLC, San Antonio, TX. More information available from US FCC via Universal Licensing System and Coast Guard Vessel Documentation Center.

Last reported at 2017-Nov-16 09:47 UTC. Time now 2017-Nov-20 17:42 UTC.
Position N 29°49' W 093°59'.

Length 25 m; draft 3 m.

Type: Towing. MMSI: 367663890.

Date/timePositionNaut miles runAvg speedWind from/ knotsBaromVisibWave heightAir tempDewpointWater temp
2017-Nov-16 09:47N 29°49' W 093°59'2 0.3
2017-Nov-16 04:03N 29°48' W 094°00'49 5.0
2017-Nov-15 18:18N 29°30' W 094°52'2 7.9
2017-Nov-15 18:01N 29°32' W 094°54'4 7.3
2017-Nov-15 17:30N 29°35' W 094°56'3 7.0
2017-Nov-15 17:00N 29°38' W 094°58'4 7.3
2017-Nov-15 16:31N 29°41' W 094°59'3 6.5
2017-Nov-15 16:01N 29°44' W 095°02'4 6.5
2017-Nov-15 15:28N 29°46' W 095°05'1 1.3
2017-Nov-15 14:41N 29°45' W 095°06'0 0.0
2017-Nov-15 14:26N 29°45' W 095°06'0 0.0
2017-Nov-15 13:50N 29°45' W 095°06'0 0.0
2017-Nov-15 13:29N 29°45' W 095°06'0 0.0
2017-Nov-15 12:56N 29°45' W 095°06'0 0.0
2017-Nov-15 12:26N 29°45' W 095°06'0 0.0
2017-Nov-15 11:56N 29°45' W 095°06'0 0.0
2017-Nov-15 11:23N 29°45' W 095°06'0 0.0
2017-Nov-15 10:56N 29°45' W 095°06'0 0.0
2017-Nov-15 10:23N 29°45' W 095°06'0 0.0
2017-Nov-15 09:59N 29°45' W 095°06'0 0.0
2017-Nov-15 09:11N 29°45' W 095°06'0 0.0
2017-Nov-15 08:59N 29°45' W 095°06'0 0.0
2017-Nov-15 08:29N 29°45' W 095°06'0 0.0
2017-Nov-15 07:59N 29°45' W 095°06'0 0.0
2017-Nov-15 07:29N 29°45' W 095°06'0 0.0
2017-Nov-15 06:50N 29°45' W 095°06'0 0.0
2017-Nov-15 06:29N 29°45' W 095°06'0 0.0
2017-Nov-15 05:56N 29°45' W 095°06'0 0.0
2017-Nov-15 05:20N 29°45' W 095°06'0 0.0
2017-Nov-15 04:59N 29°45' W 095°06'0 0.0
2017-Nov-15 04:20N 29°45' W 095°06'0 0.0
2017-Nov-15 03:56N 29°45' W 095°06'0 0.0
2017-Nov-15 03:26N 29°45' W 095°06'0 0.0
2017-Nov-15 02:59N 29°45' W 095°06'0 0.0
2017-Nov-15 02:26N 29°45' W 095°06'0 0.0
2017-Nov-15 01:59N 29°45' W 095°06'0 0.0
2017-Nov-15 01:29N 29°45' W 095°06'0 0.0
2017-Nov-15 00:59N 29°45' W 095°06'0 0.0
2017-Nov-15 00:26N 29°45' W 095°06'0 0.0
2017-Nov-14 23:59N 29°45' W 095°06'0 0.0
2017-Nov-14 23:29N 29°45' W 095°06'0 0.0
2017-Nov-14 22:59N 29°45' W 095°06'0 0.0
2017-Nov-14 22:29N 29°45' W 095°06'0 0.0
2017-Nov-14 21:59N 29°45' W 095°06'0 0.0
2017-Nov-14 21:29N 29°45' W 095°06'0 0.0
2017-Nov-14 20:56N 29°45' W 095°06'0 0.0
2017-Nov-14 20:26N 29°45' W 095°06'0 0.3
2017-Nov-14 18:55N 29°45' W 095°06'1 3.0
2017-Nov-14 18:29N 29°46' W 095°04'1 1.4
2017-Nov-14 17:38N 29°45' W 095°04'0 0.6
2017-Nov-14 17:30N 29°44' W 095°04'2 4.0
2017-Nov-14 17:00N 29°44' W 095°01'2 4.3
2017-Nov-14 16:30N 29°42' W 094°60'2 4.3
2017-Nov-14 16:00N 29°40' W 094°59'3 6.0
2017-Nov-14 15:30N 29°37' W 094°57'3 6.9
2017-Nov-14 15:00N 29°34' W 094°56'4 7.0
2017-Nov-14 14:30N 29°31' W 094°53'  
2017-Nov-08 03:50N 29°57' W 093°52'  
Track history (hours):
 
Tides and Currents Weather Stations Pressure Air Temp Water Temp Dewpoint Dewpoint Depression Visibility Wind Speed Wind Dir Waves Ship Positions

MV Sebastian D

Owner: Enterprise Marine Services, LLC, San Antonio, TX. More information available from US FCC via Universal Licensing System and Coast Guard Vessel Documentation Center.

Last reported at 2017-Nov-16 09:47 UTC. Time now 2017-Nov-20 17:42 UTC.
Position N 29°49' W 093°59'.

Length 25 m; draft 3 m.

Type: Towing. MMSI: 367663890.

Date/timePositionNaut miles runAvg speedWind from/ knotsBaromVisibWave heightAir tempDewpointWater temp
2017-Nov-16 09:47N 29°49' W 093°59'2 0.3
2017-Nov-16 04:03N 29°48' W 094°00'49 5.0
2017-Nov-15 18:18N 29°30' W 094°52'2 7.9
2017-Nov-15 18:01N 29°32' W 094°54'4 7.3
2017-Nov-15 17:30N 29°35' W 094°56'3 7.0
2017-Nov-15 17:00N 29°38' W 094°58'4 7.3
2017-Nov-15 16:31N 29°41' W 094°59'3 6.5
2017-Nov-15 16:01N 29°44' W 095°02'4 6.5
2017-Nov-15 15:28N 29°46' W 095°05'1 1.3
2017-Nov-15 14:41N 29°45' W 095°06'0 0.0
2017-Nov-15 14:26N 29°45' W 095°06'0 0.0
2017-Nov-15 13:50N 29°45' W 095°06'0 0.0
2017-Nov-15 13:29N 29°45' W 095°06'0 0.0
2017-Nov-15 12:56N 29°45' W 095°06'0 0.0
2017-Nov-15 12:26N 29°45' W 095°06'0 0.0
2017-Nov-15 11:56N 29°45' W 095°06'0 0.0
2017-Nov-15 11:23N 29°45' W 095°06'0 0.0
2017-Nov-15 10:56N 29°45' W 095°06'0 0.0
2017-Nov-15 10:23N 29°45' W 095°06'0 0.0
2017-Nov-15 09:59N 29°45' W 095°06'0 0.0
2017-Nov-15 09:11N 29°45' W 095°06'0 0.0
2017-Nov-15 08:59N 29°45' W 095°06'0 0.0
2017-Nov-15 08:29N 29°45' W 095°06'0 0.0
2017-Nov-15 07:59N 29°45' W 095°06'0 0.0
2017-Nov-15 07:29N 29°45' W 095°06'0 0.0
2017-Nov-15 06:50N 29°45' W 095°06'0 0.0
2017-Nov-15 06:29N 29°45' W 095°06'0 0.0
2017-Nov-15 05:56N 29°45' W 095°06'0 0.0
2017-Nov-15 05:20N 29°45' W 095°06'0 0.0
2017-Nov-15 04:59N 29°45' W 095°06'0 0.0
2017-Nov-15 04:20N 29°45' W 095°06'0 0.0
2017-Nov-15 03:56N 29°45' W 095°06'0 0.0
2017-Nov-15 03:26N 29°45' W 095°06'0 0.0
2017-Nov-15 02:59N 29°45' W 095°06'0 0.0
2017-Nov-15 02:26N 29°45' W 095°06'0 0.0
2017-Nov-15 01:59N 29°45' W 095°06'0 0.0
2017-Nov-15 01:29N 29°45' W 095°06'0 0.0
2017-Nov-15 00:59N 29°45' W 095°06'0 0.0
2017-Nov-15 00:26N 29°45' W 095°06'0 0.0
2017-Nov-14 23:59N 29°45' W 095°06'0 0.0
2017-Nov-14 23:29N 29°45' W 095°06'0 0.0
2017-Nov-14 22:59N 29°45' W 095°06'0 0.0
2017-Nov-14 22:29N 29°45' W 095°06'0 0.0
2017-Nov-14 21:59N 29°45' W 095°06'0 0.0
2017-Nov-14 21:29N 29°45' W 095°06'0 0.0
2017-Nov-14 20:56N 29°45' W 095°06'0 0.0
2017-Nov-14 20:26N 29°45' W 095°06'0 0.3
2017-Nov-14 18:55N 29°45' W 095°06'1 3.0
2017-Nov-14 18:29N 29°46' W 095°04'1 1.4
2017-Nov-14 17:38N 29°45' W 095°04'0 0.6
2017-Nov-14 17:30N 29°44' W 095°04'2 4.0
2017-Nov-14 17:00N 29°44' W 095°01'2 4.3
2017-Nov-14 16:30N 29°42' W 094°60'2 4.3
2017-Nov-14 16:00N 29°40' W 094°59'3 6.0
2017-Nov-14 15:30N 29°37' W 094°57'3 6.9
2017-Nov-14 15:00N 29°34' W 094°56'4 7.0
2017-Nov-14 14:30N 29°31' W 094°53'  
2017-Nov-08 03:50N 29°57' W 093°52'  

Dump ship's entire track history